Time;durP1;ratioP1;P1;durP2;ratioP2;P2;SDS_P1;SDS_P2;PMS_P1;PMS_P2;Temp;Humidity;BMP_temperature;BMP_pressure;BME280_temperature;BME280_humidity;BME280_pressure;Samples;Min_cycle;Max_cycle;Signal;HPM_P1;HPM_P2
2021/11/15 00:00:19;;;;;;;24.98;16.70;;;9.40;99.90;;;;;;4138371;28;20022;-73
2021/11/15 00:02:21;;;;;;;27.27;17.95;;;9.40;99.90;;;;;;4137731;28;20022;-73
2021/11/15 00:04:21;;;;;;;27.13;17.33;;;9.40;99.90;;;;;;4135465;28;20026;-73
2021/11/15 00:06:22;;;;;;;28.88;17.63;;;9.40;99.90;;;;;;4119618;28;20110;-73
2021/11/15 00:08:23;;;;;;;28.73;17.60;;;9.40;99.90;;;;;;4138215;28;20069;-73
2021/11/15 00:10:23;;;;;;;30.23;19.23;;;9.40;99.90;;;;;;4138247;28;20109;-73
2021/11/15 00:12:24;;;;;;;33.15;18.88;;;9.30;99.90;;;;;;4121635;28;20030;-73
2021/11/15 00:14:24;;;;;;;28.63;18.50;;;9.30;99.90;;;;;;4121487;28;20042;-73
2021/11/15 00:16:25;;;;;;;28.35;18.27;;;9.30;99.90;;;;;;4120691;28;20109;-73
2021/11/15 00:18:26;;;;;;;24.85;17.02;;;9.30;99.90;;;;;;4138124;28;20037;-73
2021/11/15 00:20:27;;;;;;;32.95;18.13;;;9.30;99.90;;;;;;4120567;28;20071;-73
2021/11/15 00:22:28;;;;;;;27.75;17.55;;;9.30;99.90;;;;;;4117455;28;20042;-73
2021/11/15 00:24:28;;;;;;;26.25;16.80;;;9.30;99.90;;;;;;4122935;28;20034;-73
2021/11/15 00:26:29;;;;;;;25.35;16.75;;;9.40;99.90;;;;;;4137767;28;20563;-73
2021/11/15 00:28:30;;;;;;;26.92;17.17;;;9.40;99.90;;;;;;4131558;28;20034;-73
2021/11/15 00:30:31;;;;;;;23.50;15.88;;;9.40;99.90;;;;;;4118496;28;20435;-73
2021/11/15 00:32:31;;;;;;;25.60;16.77;;;9.50;99.90;;;;;;4112937;28;20097;-73
2021/11/15 00:34:32;;;;;;;24.70;17.13;;;9.50;99.90;;;;;;4134256;28;20030;-73
2021/11/15 00:36:33;;;;;;;27.73;17.40;;;9.50;99.90;;;;;;4132458;28;20565;-73
2021/11/15 00:38:33;;;;;;;26.75;16.92;;;9.50;99.90;;;;;;4137012;28;20030;-73
2021/11/15 00:40:34;;;;;;;25.88;17.08;;;9.50;99.90;;;;;;4132778;28;20117;-73
2021/11/15 00:42:35;;;;;;;26.42;16.77;;;9.50;99.90;;;;;;4134580;28;20437;-73
2021/11/15 00:44:36;;;;;;;21.75;15.50;;;9.50;99.90;;;;;;4113592;28;20633;-73
2021/11/15 00:46:36;;;;;;;24.90;16.40;;;9.50;99.90;;;;;;4130517;28;20107;-73
2021/11/15 00:48:37;;;;;;;23.05;16.13;;;9.50;99.90;;;;;;4129017;28;20030;-73
2021/11/15 00:50:39;;;;;;;26.77;17.42;;;9.50;99.90;;;;;;4114258;28;20034;-73
2021/11/15 00:52:40;;;;;;;22.40;15.80;;;9.40;99.90;;;;;;4133290;28;20602;-73
2021/11/15 00:54:40;;;;;;;28.73;17.73;;;9.40;99.90;;;;;;4132513;28;20048;-73
2021/11/15 00:56:41;;;;;;;25.02;16.40;;;9.40;99.90;;;;;;4115802;28;20035;-73
2021/11/15 00:58:41;;;;;;;26.63;17.10;;;9.40;99.90;;;;;;4130250;28;20038;-73
2021/11/15 01:00:43;;;;;;;27.05;16.13;;;9.40;99.90;;;;;;4134082;28;20026;-73
2021/11/15 01:02:44;;;;;;;25.63;16.60;;;9.40;99.90;;;;;;4133113;28;20669;-73
2021/11/15 01:04:45;;;;;;;24.27;16.10;;;9.30;99.90;;;;;;4135207;28;20037;-73
2021/11/15 01:06:45;;;;;;;26.40;16.38;;;9.30;99.90;;;;;;4112960;28;20035;-73
2021/11/15 01:08:46;;;;;;;24.13;16.13;;;9.20;99.90;;;;;;4129696;28;20031;-73
2021/11/15 01:10:49;;;;;;;21.85;14.93;;;9.20;99.90;;;;;;4130206;28;20085;-73
2021/11/15 01:12:51;;;;;;;23.30;15.43;;;9.20;99.90;;;;;;4129379;28;20030;-73
2021/11/15 01:14:52;;;;;;;20.92;14.10;;;9.20;99.90;;;;;;4134677;28;20030;-73
2021/11/15 01:16:52;;;;;;;24.05;15.40;;;9.30;99.90;;;;;;4117215;28;20122;-73
2021/11/15 01:18:53;;;;;;;23.48;15.35;;;9.30;99.90;;;;;;4134772;28;20455;-73
2021/11/15 01:20:54;;;;;;;20.83;14.23;;;9.30;99.90;;;;;;4132101;28;20040;-73
2021/11/15 01:22:55;;;;;;;22.45;15.23;;;9.30;99.90;;;;;;4119800;28;20038;-73
2021/11/15 01:24:56;;;;;;;21.27;14.82;;;9.30;99.90;;;;;;4118488;28;20512;-73
2021/11/15 01:26:57;;;;;;;20.20;13.60;;;9.30;99.90;;;;;;4133527;28;20056;-73
2021/11/15 01:28:58;;;;;;;19.98;14.77;;;9.30;99.90;;;;;;4118767;28;20030;-74
2021/11/15 01:30:59;;;;;;;23.92;15.95;;;9.30;99.90;;;;;;4135940;28;20410;-73
2021/11/15 01:33:00;;;;;;;22.67;15.55;;;9.30;99.90;;;;;;4131911;28;20060;-73
2021/11/15 01:35:01;;;;;;;22.25;15.75;;;9.20;99.90;;;;;;4133712;28;20360;-73
2021/11/15 01:37:01;;;;;;;22.15;15.63;;;9.30;99.90;;;;;;4134460;28;20037;-73
2021/11/15 01:39:04;;;;;;;19.75;13.98;;;9.30;99.90;;;;;;4134380;28;20026;-73
2021/11/15 01:41:06;;;;;;;21.42;15.10;;;9.30;99.90;;;;;;4132402;28;20042;-73
2021/11/15 01:43:07;;;;;;;20.50;14.88;;;9.30;99.90;;;;;;4115242;28;20113;-73
2021/11/15 01:45:09;;;;;;;22.83;15.63;;;9.30;99.90;;;;;;4136444;28;20053;-73
2021/11/15 01:47:10;;;;;;;23.60;17.50;;;9.30;99.90;;;;;;4134268;28;20046;-73
2021/11/15 01:49:10;;;;;;;24.27;17.17;;;9.30;99.90;;;;;;4114616;28;20066;-73
2021/11/15 01:51:11;;;;;;;24.20;17.42;;;9.20;99.90;;;;;;4130539;28;20671;-73
2021/11/15 01:53:12;;;;;;;22.95;16.90;;;9.20;99.90;;;;;;4132321;28;20053;-73
2021/11/15 01:55:13;;;;;;;20.25;14.73;;;9.10;99.90;;;;;;4132224;28;21043;-73
2021/11/15 01:57:14;;;;;;;25.13;17.27;;;9.20;99.90;;;;;;4133292;28;20026;-74
2021/11/15 01:59:15;;;;;;;23.58;16.80;;;9.00;99.90;;;;;;4134025;28;20232;-73
2021/11/15 02:01:16;;;;;;;21.63;16.35;;;9.00;99.90;;;;;;4115676;28;20629;-73
2021/11/15 02:03:19;;;;;;;23.52;16.77;;;9.00;99.90;;;;;;4129813;28;20766;-73
2021/11/15 02:05:20;;;;;;;23.90;16.95;;;8.90;99.90;;;;;;4132203;28;20038;-73
2021/11/15 02:07:21;;;;;;;23.55;16.42;;;8.90;99.90;;;;;;4115364;28;20443;-73
2021/11/15 02:09:21;;;;;;;23.52;16.77;;;8.90;99.90;;;;;;4135636;28;20034;-73
2021/11/15 02:11:22;;;;;;;23.50;17.20;;;8.90;99.90;;;;;;4133656;28;20029;-73
2021/11/15 02:13:24;;;;;;;19.38;15.27;;;8.90;99.90;;;;;;4132522;28;20502;-73
2021/11/15 02:15:25;;;;;;;22.67;16.20;;;8.80;99.90;;;;;;4114005;28;20057;-73
2021/11/15 02:17:26;;;;;;;20.20;15.27;;;8.90;99.90;;;;;;4132389;28;20054;-73
2021/11/15 02:19:26;;;;;;;21.73;16.10;;;8.90;99.90;;;;;;4135967;28;20049;-73
2021/11/15 02:21:27;;;;;;;20.35;15.13;;;8.90;99.90;;;;;;4115569;28;20038;-73
2021/11/15 02:23:31;;;;;;;24.10;16.67;;;8.90;99.90;;;;;;4134551;28;20042;-73
2021/11/15 02:25:32;;;;;;;24.38;17.15;;;9.00;99.90;;;;;;4131938;28;20046;-73
2021/11/15 02:27:34;;;;;;;20.42;15.52;;;8.90;99.90;;;;;;4133325;28;20057;-73
2021/11/15 02:29:38;;;;;;;23.67;16.35;;;8.90;99.90;;;;;;4129634;28;20034;-73
2021/11/15 02:31:38;;;;;;;26.23;18.00;;;9.00;99.90;;;;;;4115027;28;20469;-73
2021/11/15 02:33:40;;;;;;;28.02;17.67;;;8.90;99.90;;;;;;4131520;28;20049;-73
2021/11/15 02:35:41;;;;;;;29.75;18.92;;;8.80;99.90;;;;;;4116429;28;20044;-73
2021/11/15 02:37:43;;;;;;;25.20;17.92;;;8.80;99.90;;;;;;4119142;28;20129;-73
2021/11/15 02:39:44;;;;;;;28.52;20.25;;;8.90;99.90;;;;;;4129706;28;20038;-73
2021/11/15 02:41:45;;;;;;;28.13;19.25;;;8.80;99.90;;;;;;4129996;28;20129;-73
2021/11/15 02:43:46;;;;;;;29.83;20.27;;;8.80;99.90;;;;;;4130040;28;20121;-73
2021/11/15 02:45:47;;;;;;;29.25;20.70;;;8.80;99.90;;;;;;4132386;28;20131;-73
2021/11/15 02:47:48;;;;;;;28.67;20.17;;;8.80;99.90;;;;;;4131923;28;20046;-74
2021/11/15 02:49:49;;;;;;;27.15;18.58;;;8.70;99.90;;;;;;4133547;28;20084;-73
2021/11/15 02:51:50;;;;;;;29.75;19.85;;;8.80;99.90;;;;;;4113908;28;20402;-73
2021/11/15 02:53:51;;;;;;;30.38;20.02;;;8.80;99.90;;;;;;4117349;28;20037;-73
2021/11/15 02:55:52;;;;;;;30.80;20.90;;;8.70;99.90;;;;;;4111691;28;20171;-73
2021/11/15 02:57:54;;;;;;;32.80;22.50;;;8.70;99.90;;;;;;4112076;28;20161;-73
2021/11/15 02:59:55;;;;;;;34.28;21.15;;;8.70;99.90;;;;;;4119957;28;20038;-73
2021/11/15 03:01:56;;;;;;;30.55;20.30;;;8.60;99.90;;;;;;4131954;28;20060;-73
2021/11/15 03:03:57;;;;;;;33.60;22.05;;;8.60;99.90;;;;;;4132092;28;20057;-73
2021/11/15 03:05:58;;;;;;;33.33;22.50;;;8.60;99.90;;;;;;4133467;28;20123;-73
2021/11/15 03:08:00;;;;;;;34.83;23.17;;;8.60;99.90;;;;;;4116990;28;20726;-73
2021/11/15 03:10:01;;;;;;;35.42;24.33;;;8.60;99.90;;;;;;4134056;28;20096;-73
2021/11/15 03:12:01;;;;;;;34.15;23.85;;;8.60;99.90;;;;;;4131975;28;20038;-73
2021/11/15 03:14:02;;;;;;;35.10;22.60;;;8.60;99.90;;;;;;4134998;28;20069;-73
2021/11/15 03:16:04;;;;;;;36.70;24.17;;;8.60;99.90;;;;;;4120254;28;20739;-73
2021/11/15 03:18:13;;;;;;;36.83;23.93;;;8.60;99.90;;;;;;4116030;28;20841;-73
2021/11/15 03:20:13;;;;;;;35.72;23.77;;;8.60;99.90;;;;;;4114253;28;20027;-73
2021/11/15 03:22:14;;;;;;;33.17;22.13;;;8.60;99.90;;;;;;4132749;28;20125;-73
2021/11/15 03:24:14;;;;;;;31.17;21.35;;;8.70;99.90;;;;;;4132735;28;20105;-73
2021/11/15 03:26:16;;;;;;;33.67;22.73;;;8.70;99.90;;;;;;4134597;28;20046;-73
2021/11/15 03:28:19;;;;;;;37.17;24.85;;;8.70;99.90;;;;;;4133187;28;20051;-73
2021/11/15 03:30:21;;;;;;;35.03;23.35;;;8.60;99.90;;;;;;4114897;28;20061;-73
2021/11/15 03:32:25;;;;;;;34.53;22.48;;;8.60;99.90;;;;;;4114560;28;20457;-73
2021/11/15 03:34:25;;;;;;;33.80;22.98;;;8.70;99.90;;;;;;4130978;28;20046;-73
2021/11/15 03:36:27;;;;;;;35.17;23.35;;;8.60;99.90;;;;;;4131066;28;20039;-73
2021/11/15 03:38:28;;;;;;;38.30;25.65;;;8.60;99.90;;;;;;4131278;28;20034;-73
2021/11/15 03:40:28;;;;;;;34.67;23.15;;;8.60;99.90;;;;;;4123376;28;20157;-73
2021/11/15 03:42:29;;;;;;;40.03;25.83;;;8.60;99.90;;;;;;4128906;28;20556;-73
2021/11/15 03:44:29;;;;;;;41.08;25.35;;;8.60;99.90;;;;;;4131455;28;20035;-73
2021/11/15 03:46:32;;;;;;;35.78;23.00;;;8.70;99.90;;;;;;4128065;28;20041;-73
2021/11/15 03:48:32;;;;;;;35.75;22.80;;;8.70;99.90;;;;;;4127506;28;20546;-73
2021/11/15 03:50:33;;;;;;;39.10;25.50;;;8.70;99.90;;;;;;4130327;28;20033;-73
2021/11/15 03:52:35;;;;;;;35.40;23.65;;;8.70;99.90;;;;;;4137540;28;20032;-73
2021/11/15 03:54:35;;;;;;;39.58;24.95;;;8.70;99.90;;;;;;4117634;28;20074;-73
2021/11/15 03:56:36;;;;;;;39.50;25.33;;;8.70;99.90;;;;;;4119246;28;20509;-73
2021/11/15 03:58:39;;;;;;;39.55;26.00;;;8.70;99.90;;;;;;4133350;28;20402;-73
2021/11/15 04:00:40;;;;;;;;;;;8.70;99.90;;;;;;4120018;28;20058;-73
2021/11/15 04:02:42;;;;;;;41.80;26.42;;;8.70;99.90;;;;;;4135225;28;19999;-73
2021/11/15 04:04:51;;;;;;;41.15;26.63;;;8.70;99.90;;;;;;4117309;28;20026;-73
2021/11/15 04:06:52;;;;;;;43.45;27.35;;;8.60;99.90;;;;;;4129403;28;20652;-73
2021/11/15 04:08:55;;;;;;;45.75;28.67;;;8.60;99.90;;;;;;4135052;28;20029;-73
2021/11/15 04:10:56;;;;;;;39.85;24.75;;;8.60;99.90;;;;;;4135114;28;20188;-73
2021/11/15 04:13:02;;;;;;;43.33;28.05;;;8.60;99.90;;;;;;4114449;28;20034;-73
2021/11/15 04:15:03;;;;;;;36.90;24.25;;;8.50;99.90;;;;;;4116799;28;20039;-73
2021/11/15 04:17:04;;;;;;;41.45;26.20;;;8.60;99.90;;;;;;4135040;28;20034;-73
2021/11/15 04:19:12;;;;;;;39.03;25.90;;;8.60;99.90;;;;;;4114079;28;20038;-73
2021/11/15 04:21:14;;;;;;;40.00;27.00;;;8.60;99.90;;;;;;4129375;28;20037;-73
2021/11/15 04:23:15;;;;;;;47.20;29.85;;;8.60;99.90;;;;;;4133669;28;20038;-73
2021/11/15 04:25:15;;;;;;;42.50;27.00;;;8.70;99.90;;;;;;4136898;28;20802;-73
2021/11/15 04:27:16;;;;;;;40.33;26.65;;;8.70;99.90;;;;;;4129635;28;20445;-73
2021/11/15 04:29:17;;;;;;;46.33;29.98;;;8.70;99.90;;;;;;4131892;28;20030;-73
2021/11/15 04:31:17;;;;;;;43.13;28.70;;;8.70;99.90;;;;;;4113499;28;20855;-73
2021/11/15 04:33:18;;;;;;;55.03;34.83;;;8.80;99.90;;;;;;4133343;28;20042;-73
2021/11/15 04:35:19;;;;;;;54.50;35.75;;;8.70;99.90;;;;;;4133894;28;20513;-73
2021/11/15 04:37:20;;;;;;;49.83;32.40;;;8.70;99.90;;;;;;4115263;28;20037;-73
2021/11/15 04:39:20;;;;;;;51.33;30.60;;;8.70;99.90;;;;;;4111833;28;20113;-73
2021/11/15 04:41:21;;;;;;;45.83;29.70;;;8.70;99.90;;;;;;4134476;28;20034;-73
2021/11/15 04:43:22;;;;;;;47.58;30.17;;;8.70;99.90;;;;;;4110601;28;20034;-73
2021/11/15 04:45:22;;;;;;;45.78;29.48;;;8.70;99.90;;;;;;4133084;28;20092;-73
2021/11/15 04:47:24;;;;;;;53.58;32.28;;;8.80;99.90;;;;;;4116679;28;20041;-73
2021/11/15 04:49:24;;;;;;;49.50;29.98;;;8.70;99.90;;;;;;4130184;28;20084;-73
2021/11/15 04:51:25;;;;;;;46.55;29.02;;;8.70;99.90;;;;;;4129729;28;20049;-73
2021/11/15 04:53:25;;;;;;;37.20;25.20;;;8.70;99.90;;;;;;4129566;28;20052;-73
2021/11/15 04:55:27;;;;;;;40.65;26.13;;;8.80;99.90;;;;;;4134736;28;20050;-73
2021/11/15 04:57:28;;;;;;;47.45;28.67;;;8.80;99.90;;;;;;4127053;28;22447;-73
2021/11/15 04:59:28;;;;;;;42.40;26.52;;;8.70;99.90;;;;;;4114115;28;20094;-73
2021/11/15 05:01:29;;;;;;;38.22;24.38;;;8.70;99.90;;;;;;4114019;28;20624;-73
2021/11/15 05:03:29;;;;;;;42.00;26.55;;;8.70;99.90;;;;;;4134597;28;20030;-73
2021/11/15 05:05:31;;;;;;;48.90;29.05;;;8.60;99.90;;;;;;4117065;28;20527;-73
2021/11/15 05:07:31;;;;;;;44.60;27.40;;;8.50;99.90;;;;;;4114833;28;20068;-73
2021/11/15 05:09:32;;;;;;;45.72;27.95;;;8.50;99.90;;;;;;4130410;28;20031;-73
2021/11/15 05:11:32;;;;;;;42.03;26.17;;;8.50;99.90;;;;;;4131314;28;20038;-73
2021/11/15 05:13:33;;;;;;;41.88;25.65;;;8.50;99.90;;;;;;4132826;28;20042;-73
2021/11/15 05:15:34;;;;;;;41.97;25.42;;;8.50;99.90;;;;;;4114376;28;20110;-73
2021/11/15 05:17:34;;;;;;;47.05;27.17;;;8.50;99.90;;;;;;4130015;28;20030;-73
2021/11/15 05:19:35;;;;;;;41.80;25.27;;;8.50;99.90;;;;;;4129508;28;20096;-73
2021/11/15 05:21:36;;;;;;;43.20;24.85;;;8.50;99.90;;;;;;4132090;28;20061;-73
2021/11/15 05:23:37;;;;;;;41.85;25.52;;;8.50;99.90;;;;;;4131357;28;20041;-73
2021/11/15 05:25:38;;;;;;;44.78;26.45;;;8.40;99.90;;;;;;4132274;28;20088;-73
2021/11/15 05:27:39;;;;;;;44.35;26.15;;;8.40;99.90;;;;;;4130116;28;20077;-73
2021/11/15 05:29:39;;;;;;;40.15;24.08;;;8.30;99.90;;;;;;4131629;28;20603;-73
2021/11/15 05:31:40;;;;;;;40.95;24.40;;;8.40;99.90;;;;;;4129952;28;20074;-73
2021/11/15 05:33:41;;;;;;;43.85;25.65;;;8.40;99.90;;;;;;4116349;28;20034;-73
2021/11/15 05:35:41;;;;;;;38.50;23.33;;;8.40;99.90;;;;;;4100345;28;20083;-73
2021/11/15 05:37:42;;;;;;;38.47;22.95;;;8.40;99.90;;;;;;4118446;28;20117;-73
2021/11/15 05:39:43;;;;;;;45.08;26.55;;;8.40;99.90;;;;;;4132200;28;20038;-73
2021/11/15 05:41:44;;;;;;;39.97;23.98;;;8.40;99.90;;;;;;4132323;28;20048;-73
2021/11/15 05:43:45;;;;;;;41.78;23.60;;;8.30;99.90;;;;;;4135675;28;20042;-73
2021/11/15 05:45:45;;;;;;;38.08;22.52;;;8.40;99.90;;;;;;4136590;28;20122;-73
2021/11/15 05:47:46;;;;;;;38.65;22.23;;;8.40;99.90;;;;;;4134624;28;20794;-73
2021/11/15 05:49:47;;;;;;;36.25;22.90;;;8.40;99.90;;;;;;4123300;28;20121;-73
2021/11/15 05:51:47;;;;;;;35.47;22.00;;;8.50;99.90;;;;;;4134976;28;20042;-73
2021/11/15 05:53:48;;;;;;;33.92;22.15;;;8.50;99.90;;;;;;4116201;28;20035;-73
2021/11/15 05:55:49;;;;;;;35.78;21.38;;;8.60;99.90;;;;;;4133801;28;20261;-73
2021/11/15 05:57:50;;;;;;;34.03;21.70;;;8.60;99.90;;;;;;4134499;28;20030;-74
2021/11/15 05:59:50;;;;;;;37.05;21.35;;;8.70;99.90;;;;;;4127749;28;20045;-74
2021/11/15 06:01:51;;;;;;;33.92;19.98;;;8.70;99.90;;;;;;4130527;28;20104;-74
2021/11/15 06:03:52;;;;;;;34.97;21.10;;;8.80;99.90;;;;;;4130669;28;20113;-74
2021/11/15 06:05:52;;;;;;;32.00;20.52;;;8.80;99.90;;;;;;4129844;28;20038;-73
2021/11/15 06:07:54;;;;;;;35.22;22.13;;;8.80;99.90;;;;;;4131445;28;20079;-74
2021/11/15 06:09:55;;;;;;;35.10;21.08;;;8.80;99.90;;;;;;4129422;28;20048;-74
2021/11/15 06:11:56;;;;;;;40.72;23.20;;;8.80;99.90;;;;;;4129527;28;20710;-74
2021/11/15 06:13:56;;;;;;;40.40;23.20;;;8.80;99.90;;;;;;4099479;28;20049;-73
2021/11/15 06:15:57;;;;;;;44.28;24.85;;;8.90;99.90;;;;;;4130570;28;20042;-74
2021/11/15 06:17:58;;;;;;;45.42;26.15;;;8.80;99.90;;;;;;4129123;28;20069;-74
2021/11/15 06:19:58;;;;;;;46.72;27.38;;;8.80;99.90;;;;;;4126479;28;20044;-73
2021/11/15 06:22:00;;;;;;;45.78;26.05;;;8.80;99.90;;;;;;4115619;28;20094;-73
2021/11/15 06:24:02;;;;;;;45.08;25.77;;;8.70;99.90;;;;;;4119467;28;20041;-73
2021/11/15 06:26:03;;;;;;;48.40;25.45;;;8.70;99.90;;;;;;4110657;28;20561;-74
2021/11/15 06:28:05;;;;;;;41.63;23.92;;;8.80;99.90;;;;;;4133470;28;20494;-73
2021/11/15 06:30:09;;;;;;;35.90;22.15;;;8.80;99.90;;;;;;4132540;28;20030;-73
2021/11/15 06:32:09;;;;;;;38.75;22.52;;;8.80;99.90;;;;;;4116246;28;20091;-75
2021/11/15 06:34:10;;;;;;;42.72;24.00;;;8.90;99.90;;;;;;4115642;28;20030;-75
2021/11/15 06:36:10;;;;;;;42.63;24.15;;;8.90;99.90;;;;;;4133754;28;20038;-75
2021/11/15 06:38:11;;;;;;;40.17;24.25;;;8.90;99.90;;;;;;4116911;28;20058;-75
2021/11/15 06:40:15;;;;;;;35.83;22.02;;;8.90;99.90;;;;;;4117131;28;20034;-75
2021/11/15 06:42:16;;;;;;;37.40;21.35;;;8.90;99.90;;;;;;4126422;28;20057;-76
2021/11/15 06:44:17;;;;;;;32.22;19.77;;;9.00;99.90;;;;;;4131762;28;20042;-75
2021/11/15 06:46:18;;;;;;;35.40;21.38;;;9.00;99.90;;;;;;4132661;28;21278;-75
2021/11/15 06:48:19;;;;;;;36.47;22.10;;;9.00;99.90;;;;;;4115195;28;20034;-75
2021/11/15 06:50:21;;;;;;;34.90;20.27;;;9.10;99.90;;;;;;4109994;28;20068;-75
2021/11/15 06:52:22;;;;;;;35.03;21.15;;;9.10;99.90;;;;;;4132136;28;20440;-75
2021/11/15 06:54:22;;;;;;;32.53;19.85;;;9.10;99.90;;;;;;4125751;28;20041;-75
2021/11/15 06:56:23;;;;;;;34.55;20.95;;;9.10;99.90;;;;;;4132771;28;20160;-75
2021/11/15 06:58:25;;;;;;;33.35;20.48;;;9.10;99.90;;;;;;4115028;28;20065;-74
2021/11/15 07:00:26;;;;;;;32.40;20.20;;;9.10;99.90;;;;;;4132431;28;20463;-75
2021/11/15 07:02:27;;;;;;;40.47;22.02;;;9.10;99.90;;;;;;4130963;28;20057;-75
2021/11/15 07:04:28;;;;;;;37.30;22.50;;;9.00;99.90;;;;;;4114610;28;20157;-75
2021/11/15 07:06:28;;;;;;;40.85;22.05;;;9.00;99.90;;;;;;4131990;28;20045;-75
2021/11/15 07:08:29;;;;;;;38.78;22.52;;;9.00;99.90;;;;;;4129150;28;20030;-75
2021/11/15 07:10:30;;;;;;;38.60;21.92;;;8.90;99.90;;;;;;4112704;28;20031;-74
2021/11/15 07:12:30;;;;;;;42.85;23.58;;;8.90;99.90;;;;;;4115305;28;20062;-74
2021/11/15 07:14:31;;;;;;;40.20;23.70;;;8.90;99.90;;;;;;4131096;28;20030;-75
2021/11/15 07:16:32;;;;;;;38.47;22.33;;;8.90;99.90;;;;;;4131656;28;20065;-75
2021/11/15 07:18:33;;;;;;;37.47;21.30;;;8.90;99.90;;;;;;4114252;28;20122;-75
2021/11/15 07:20:34;;;;;;;36.55;21.63;;;8.90;99.90;;;;;;4112443;28;20156;-75
2021/11/15 07:22:35;;;;;;;35.17;20.33;;;9.00;99.90;;;;;;4130550;28;20041;-74
2021/11/15 07:24:35;;;;;;;34.17;19.90;;;8.90;99.90;;;;;;4131333;28;20113;-75
2021/11/15 07:26:36;;;;;;;33.85;19.25;;;9.00;99.90;;;;;;4130715;28;20069;-75
2021/11/15 07:28:37;;;;;;;33.47;19.27;;;9.10;99.90;;;;;;4134243;28;20037;-74
2021/11/15 07:30:38;;;;;;;33.40;20.02;;;9.10;99.90;;;;;;4103090;28;20483;-75
2021/11/15 07:32:39;;;;;;;31.73;18.80;;;9.10;99.90;;;;;;4117342;28;20046;-75
2021/11/15 07:34:41;;;;;;;30.88;17.73;;;9.10;99.90;;;;;;4134895;28;20092;-75
2021/11/15 07:36:41;;;;;;;34.10;19.38;;;9.10;99.90;;;;;;4134605;28;20041;-75
2021/11/15 07:38:42;;;;;;;33.22;19.02;;;9.10;99.90;;;;;;4133026;28;20117;-75
2021/11/15 07:40:43;;;;;;;34.15;19.50;;;9.10;99.90;;;;;;4131788;28;20065;-75
2021/11/15 07:42:44;;;;;;;34.53;20.23;;;9.10;99.90;;;;;;4133098;28;20030;-75
2021/11/15 07:44:46;;;;;;;33.67;20.00;;;9.10;99.90;;;;;;4135782;28;20160;-75
2021/11/15 07:46:48;;;;;;;35.00;20.85;;;9.10;99.90;;;;;;4133865;28;20037;-75
2021/11/15 07:48:49;;;;;;;33.47;19.90;;;9.10;99.90;;;;;;4116303;28;20459;-75
2021/11/15 07:50:50;;;;;;;35.47;20.27;;;9.10;99.90;;;;;;4134254;28;20124;-75
2021/11/15 07:52:51;;;;;;;35.33;21.13;;;9.00;99.90;;;;;;4117607;28;20043;-75
2021/11/15 07:54:52;;;;;;;34.35;21.35;;;9.00;99.90;;;;;;4133589;28;20563;-75
2021/11/15 07:56:53;;;;;;;35.13;20.73;;;9.00;99.90;;;;;;4116358;28;20054;-75
2021/11/15 07:58:53;;;;;;;42.10;25.05;;;9.00;99.90;;;;;;4135560;28;20050;-75
2021/11/15 08:00:54;;;;;;;37.33;21.38;;;8.90;99.90;;;;;;4133994;28;20038;-75
2021/11/15 08:02:55;;;;;;;36.85;21.80;;;8.90;99.90;;;;;;4132798;28;20092;-75
2021/11/15 08:04:55;;;;;;;42.67;23.73;;;8.90;99.90;;;;;;4134895;28;20815;-75
2021/11/15 08:06:56;;;;;;;36.90;21.05;;;8.90;99.90;;;;;;4133533;28;20042;-75
2021/11/15 08:08:57;;;;;;;40.45;22.90;;;8.90;99.90;;;;;;4134223;28;20042;-74
2021/11/15 08:10:58;;;;;;;35.05;21.30;;;8.90;99.90;;;;;;4134351;28;20073;-75
2021/11/15 08:12:59;;;;;;;34.83;20.63;;;8.90;99.90;;;;;;4133436;28;20034;-75
2021/11/15 08:15:04;;;;;;;42.03;24.23;;;8.90;99.90;;;;;;4115697;28;20469;-75
2021/11/15 08:17:06;;;;;;;39.15;22.65;;;8.70;99.90;;;;;;4133707;28;20069;-75
2021/11/15 08:19:06;;;;;;;38.85;23.35;;;8.70;99.90;;;;;;4134909;28;20553;-75
2021/11/15 08:21:13;;;;;;;37.22;21.80;;;8.60;99.90;;;;;;4116203;28;20069;-74
2021/11/15 08:23:15;;;;;;;33.67;19.80;;;8.60;99.90;;;;;;4100630;28;20404;-75
2021/11/15 08:25:37;;;;;;;33.25;19.02;;;8.70;99.90;;;;;;4117405;28;20530;-75
2021/11/15 08:27:37;;;;;;;35.63;19.63;;;8.70;99.90;;;;;;4133418;28;20536;-73
2021/11/15 08:29:42;;;;;;;39.72;21.10;;;8.70;99.90;;;;;;4135482;28;20041;-73
2021/11/15 08:31:45;;;;;;;37.95;21.08;;;8.70;99.90;;;;;;4131927;28;20042;-73
2021/11/15 08:33:46;;;;;;;39.90;22.63;;;8.70;99.90;;;;;;4134460;28;20026;-72
2021/11/15 08:35:48;;;;;;;37.90;21.60;;;8.60;99.90;;;;;;4132564;28;20486;-73
2021/11/15 08:38:15;;;;;;;39.13;22.52;;;8.60;99.90;;;;;;4116678;28;20034;-73
2021/11/15 08:40:16;;;;;;;36.28;21.23;;;8.50;99.90;;;;;;4107315;28;20074;-73
2021/11/15 08:42:17;;;;;;;36.65;20.58;;;8.40;99.90;;;;;;4132660;28;20502;-73
2021/11/15 08:44:20;;;;;;;38.28;21.88;;;8.40;99.90;;;;;;4117840;28;20399;-73
2021/11/15 08:46:23;;;;;;;37.40;21.48;;;8.40;99.90;;;;;;4132328;28;20121;-73
2021/11/15 08:48:24;;;;;;;34.30;20.88;;;8.40;99.90;;;;;;4134530;28;20034;-73
2021/11/15 08:50:24;;;;;;;40.47;21.90;;;8.40;99.90;;;;;;4116294;28;20047;-73
2021/11/15 08:52:25;;;;;;;36.22;20.98;;;8.40;99.90;;;;;;4135064;28;20046;-73
2021/11/15 08:54:27;;;;;;;37.28;21.52;;;8.40;99.90;;;;;;4135136;28;20115;-72
2021/11/15 08:56:27;;;;;;;37.40;20.95;;;8.40;99.90;;;;;;4133659;28;20748;-73
2021/11/15 08:58:28;;;;;;;38.97;22.08;;;8.30;99.90;;;;;;4102030;28;20089;-73
2021/11/15 09:00:29;;;;;;;40.30;19.65;;;8.40;99.90;;;;;;4132436;28;20491;-72
2021/11/15 09:02:30;;;;;;;31.75;18.98;;;8.30;99.90;;;;;;4115321;28;20165;-73
2021/11/15 09:04:30;;;;;;;39.83;20.88;;;8.40;99.90;;;;;;4099964;28;20034;-73
2021/11/15 09:06:34;;;;;;;36.28;22.23;;;8.40;99.90;;;;;;4131259;28;20100;-73
2021/11/15 09:08:36;;;;;;;36.42;20.80;;;8.30;99.90;;;;;;4117004;28;20049;-73
2021/11/15 09:10:37;;;;;;;40.20;22.33;;;8.30;99.90;;;;;;4115981;28;20121;-73
2021/11/15 09:12:43;;;;;;;37.38;21.55;;;8.30;99.90;;;;;;4133089;28;20026;-73
2021/11/15 09:14:44;;;;;;;35.42;20.15;;;8.30;99.90;;;;;;4117008;28;20088;-73
2021/11/15 09:16:46;;;;;;;37.33;22.20;;;8.30;99.90;;;;;;4133190;28;20061;-73
2021/11/15 09:18:47;;;;;;;38.20;21.92;;;8.20;99.90;;;;;;4130247;28;20155;-73
2021/11/15 09:20:48;;;;;;;39.40;21.95;;;8.20;99.90;;;;;;4134269;28;20050;-73
2021/11/15 09:22:49;;;;;;;38.50;21.70;;;8.20;99.90;;;;;;4132295;28;20153;-73
2021/11/15 09:24:50;;;;;;;32.80;19.58;;;8.20;99.90;;;;;;4134185;28;20137;-73
2021/11/15 09:26:51;;;;;;;33.58;18.63;;;8.20;99.90;;;;;;4133028;28;20046;-73
2021/11/15 09:28:53;;;;;;;35.75;20.65;;;8.30;99.90;;;;;;4132890;28;20085;-73
2021/11/15 09:30:54;;;;;;;34.85;19.48;;;8.20;99.90;;;;;;4133881;28;20068;-72
2021/11/15 09:32:55;;;;;;;32.75;18.73;;;8.10;99.90;;;;;;4116221;28;20038;-73
2021/11/15 09:34:55;;;;;;;28.48;16.30;;;8.10;99.90;;;;;;4133283;28;20049;-72
2021/11/15 09:36:57;;;;;;;32.45;18.42;;;8.10;99.90;;;;;;4132087;28;20038;-72
2021/11/15 09:38:58;;;;;;;30.48;18.02;;;8.10;99.90;;;;;;4115228;28;20041;-72
2021/11/15 09:41:02;;;;;;;30.55;18.33;;;8.10;99.90;;;;;;4132589;28;20536;-72
2021/11/15 09:43:03;;;;;;;31.75;18.50;;;8.10;99.90;;;;;;4132904;28;20042;-72
2021/11/15 09:45:07;;;;;;;33.75;19.42;;;8.20;99.90;;;;;;4132637;28;20048;-72
2021/11/15 09:47:08;;;;;;;37.63;19.73;;;8.20;99.90;;;;;;4131046;28;20045;-72
2021/11/15 09:49:12;;;;;;;35.97;19.33;;;8.10;99.90;;;;;;4130754;28;20057;-73
2021/11/15 09:51:13;;;;;;;36.67;17.63;;;8.10;99.90;;;;;;4130902;28;20548;-72
2021/11/15 09:53:13;;;;;;;40.35;20.58;;;8.20;99.90;;;;;;4115531;28;20157;-73
2021/11/15 09:55:16;;;;;;;40.88;22.33;;;8.10;99.90;;;;;;4116117;28;20046;-73
2021/11/15 09:57:18;;;;;;;41.30;23.30;;;8.00;99.90;;;;;;4133595;28;20446;-73
2021/11/15 09:59:21;;;;;;;35.38;21.25;;;8.10;99.90;;;;;;4135161;28;20041;-73
2021/11/15 10:01:22;;;;;;;34.55;21.05;;;8.10;99.90;;;;;;4135547;28;20690;-73
2021/11/15 10:03:25;;;;;;;36.38;19.85;;;8.10;99.90;;;;;;4134709;28;20042;-73
2021/11/15 10:05:25;;;;;;;;;;;8.10;99.90;;;;;;4135910;28;20038;-73
2021/11/15 10:07:56;;;;;;;34.72;18.55;;;8.10;99.90;;;;;;4134259;28;19933;-73
2021/11/15 10:09:57;;;;;;;32.30;18.08;;;8.10;99.90;;;;;;4113921;28;20038;-73
2021/11/15 10:12:06;;;;;;;33.90;17.17;;;8.20;99.90;;;;;;4133838;28;20038;-73
2021/11/15 10:14:06;;;;;;;36.05;19.10;;;8.20;99.90;;;;;;4132302;28;20061;-73
2021/11/15 10:16:19;;;;;;;35.00;19.58;;;8.20;99.90;;;;;;4133927;28;20103;-73
2021/11/15 10:18:43;;;;;;;32.80;18.80;;;8.10;99.90;;;;;;4132942;28;20583;-73
2021/11/15 10:20:50;;;;;;;34.72;19.67;;;8.10;99.90;;;;;;4115350;28;20033;-73
2021/11/15 10:22:51;;;;;;;32.10;19.52;;;8.10;99.90;;;;;;4116792;28;20034;-73
2021/11/15 10:24:51;;;;;;;30.80;18.38;;;8.10;99.90;;;;;;4134429;28;20034;-73